sensor_id;sensor_type;location;lat;lon;timestamp;pressure;altitude;pressure_sealevel;temperature;humidity
64243;BME280;50573;51.512;5.386;2022-10-16T00:06:31;100863.72;;;11.24;100.00
64243;BME280;50573;51.512;5.386;2022-10-16T00:16:34;100855.09;;;11.20;100.00
64243;BME280;50573;51.512;5.386;2022-10-16T00:26:39;100859.50;;;11.12;100.00
64243;BME280;50573;51.512;5.386;2022-10-16T00:36:42;100856.09;;;11.04;100.00
64243;BME280;50573;51.512;5.386;2022-10-16T00:46:47;100876.81;;;11.01;100.00
64243;BME280;50573;51.512;5.386;2022-10-16T00:56:50;100877.69;;;10.98;100.00
64243;BME280;50573;51.512;5.386;2022-10-16T01:07:06;100864.78;;;10.94;100.00
64243;BME280;50573;51.512;5.386;2022-10-16T01:17:16;100867.44;;;10.87;100.00
64243;BME280;50573;51.512;5.386;2022-10-16T01:27:24;100875.22;;;10.84;100.00
64243;BME280;50573;51.512;5.386;2022-10-16T01:37:33;100876.03;;;10.91;100.00
64243;BME280;50573;51.512;5.386;2022-10-16T01:47:39;100874.22;;;11.02;100.00
64243;BME280;50573;51.512;5.386;2022-10-16T01:57:46;100862.97;;;11.08;100.00
64243;BME280;50573;51.512;5.386;2022-10-16T02:07:51;100868.97;;;11.12;100.00
64243;BME280;50573;51.512;5.386;2022-10-16T02:17:54;100877.63;;;11.11;100.00
64243;BME280;50573;51.512;5.386;2022-10-16T02:28:03;100866.47;;;11.02;100.00
64243;BME280;50573;51.512;5.386;2022-10-16T02:38:07;100869.09;;;10.96;100.00
64243;BME280;50573;51.512;5.386;2022-10-16T02:48:12;100879.47;;;10.93;100.00
64243;BME280;50573;51.512;5.386;2022-10-16T02:58:16;100864.88;;;10.83;100.00
64243;BME280;50573;51.512;5.386;2022-10-16T03:08:20;100881.28;;;10.77;100.00
64243;BME280;50573;51.512;5.386;2022-10-16T03:18:25;100879.56;;;10.76;100.00
64243;BME280;50573;51.512;5.386;2022-10-16T03:28:29;100901.94;;;10.80;100.00
64243;BME280;50573;51.512;5.386;2022-10-16T03:38:32;100906.22;;;10.86;100.00
64243;BME280;50573;51.512;5.386;2022-10-16T03:48:36;100920.88;;;10.90;100.00
64243;BME280;50573;51.512;5.386;2022-10-16T03:58:41;100924.28;;;10.94;100.00
64243;BME280;50573;51.512;5.386;2022-10-16T04:08:45;100919.97;;;10.94;100.00
64243;BME280;50573;51.512;5.386;2022-10-16T04:18:48;100923.44;;;10.93;100.00
64243;BME280;50573;51.512;5.386;2022-10-16T04:28:53;100932.91;;;10.97;100.00
64243;BME280;50573;51.512;5.386;2022-10-16T04:38:56;100944.91;;;11.01;100.00
64243;BME280;50573;51.512;5.386;2022-10-16T04:49:00;100950.94;;;11.08;100.00
64243;BME280;50573;51.512;5.386;2022-10-16T04:59:03;100971.63;;;11.06;100.00
64243;BME280;50573;51.512;5.386;2022-10-16T05:09:08;100988.06;;;10.98;100.00
64243;BME280;50573;51.512;5.386;2022-10-16T05:19:11;100988.94;;;10.90;100.00
64243;BME280;50573;51.512;5.386;2022-10-16T05:29:31;101011.41;;;10.84;100.00
64243;BME280;50573;51.512;5.386;2022-10-16T05:39:34;101028.63;;;10.83;100.00
64243;BME280;50573;51.512;5.386;2022-10-16T05:49:39;101058.81;;;10.80;100.00
64243;BME280;50573;51.512;5.386;2022-10-16T05:59:42;101074.38;;;10.70;100.00
64243;BME280;50573;51.512;5.386;2022-10-16T06:09:49;101092.47;;;10.67;100.00
64243;BME280;50573;51.512;5.386;2022-10-16T06:19:52;101113.13;;;10.60;100.00
64243;BME280;50573;51.512;5.386;2022-10-16T06:29:56;101129.53;;;10.62;100.00
64243;BME280;50573;51.512;5.386;2022-10-16T06:40:00;101148.47;;;10.65;100.00
64243;BME280;50573;51.512;5.386;2022-10-16T06:50:07;101163.97;;;10.79;100.00
64243;BME280;50573;51.512;5.386;2022-10-16T07:00:10;101175.13;;;10.98;100.00
64243;BME280;50573;51.512;5.386;2022-10-16T07:10:15;101179.44;;;11.15;100.00
64243;BME280;50573;51.512;5.386;2022-10-16T07:20:18;101198.31;;;11.41;100.00
64243;BME280;50573;51.512;5.386;2022-10-16T07:30:23;101202.53;;;11.66;100.00
64243;BME280;50573;51.512;5.386;2022-10-16T07:40:26;101224.84;;;11.91;100.00
64243;BME280;50573;51.512;5.386;2022-10-16T07:50:31;101231.63;;;12.25;100.00
64243;BME280;50573;51.512;5.386;2022-10-16T08:00:35;101236.66;;;12.45;100.00
64243;BME280;50573;51.512;5.386;2022-10-16T08:10:40;101255.56;;;12.61;100.00
64243;BME280;50573;51.512;5.386;2022-10-16T08:20:43;101260.59;;;12.79;100.00
64243;BME280;50573;51.512;5.386;2022-10-16T08:30:48;101270.84;;;12.96;100.00
64243;BME280;50573;51.512;5.386;2022-10-16T08:40:51;101284.47;;;13.18;100.00
64243;BME280;50573;51.512;5.386;2022-10-16T08:51:01;101303.38;;;13.36;100.00
64243;BME280;50573;51.512;5.386;2022-10-16T09:01:13;101301.41;;;13.60;100.00
64243;BME280;50573;51.512;5.386;2022-10-16T09:11:25;101325.44;;;13.80;100.00
64243;BME280;50573;51.512;5.386;2022-10-16T09:21:35;101325.19;;;13.99;100.00
64243;BME280;50573;51.512;5.386;2022-10-16T09:31:42;101334.47;;;14.21;100.00
64243;BME280;50573;51.512;5.386;2022-10-16T09:41:45;101323.75;;;14.45;98.80
64243;BME280;50573;51.512;5.386;2022-10-16T09:51:50;101334.78;;;14.64;97.67
64243;BME280;50573;51.512;5.386;2022-10-16T10:01:55;101348.44;;;14.78;97.53
64243;BME280;50573;51.512;5.386;2022-10-16T10:12:03;101341.16;;;15.00;95.40
64243;BME280;50573;51.512;5.386;2022-10-16T10:22:25;101355.03;;;15.01;94.69
64243;BME280;50573;51.512;5.386;2022-10-16T10:32:36;101379.28;;;15.06;93.86
64243;BME280;50573;51.512;5.386;2022-10-16T10:42:50;101361.03;;;15.07;89.90
64243;BME280;50573;51.512;5.386;2022-10-16T10:53:06;101380.63;;;15.28;87.81
64243;BME280;50573;51.512;5.386;2022-10-16T11:03:17;101375.44;;;15.28;88.37
64243;BME280;50573;51.512;5.386;2022-10-16T11:13:32;101382.56;;;15.16;88.67
64243;BME280;50573;51.512;5.386;2022-10-16T11:23:41;101384.03;;;15.32;85.33
64243;BME280;50573;51.512;5.386;2022-10-16T11:33:50;101389.56;;;15.65;85.79
64243;BME280;50573;51.512;5.386;2022-10-16T11:44:06;101386.50;;;15.90;83.47
64243;BME280;50573;51.512;5.386;2022-10-16T11:54:20;101391.34;;;16.54;80.73
64243;BME280;50573;51.512;5.386;2022-10-16T12:04:27;101391.34;;;16.93;79.49
64243;BME280;50573;51.512;5.386;2022-10-16T12:14:37;101393.31;;;17.20;75.69
64243;BME280;50573;51.512;5.386;2022-10-16T12:25:01;101398.91;;;17.03;74.82
64243;BME280;50573;51.512;5.386;2022-10-16T12:35:17;101393.84;;;17.68;73.68
64243;BME280;50573;51.512;5.386;2022-10-16T12:45:28;101391.34;;;18.28;69.52
64243;BME280;50573;51.512;5.386;2022-10-16T12:55:47;101402.03;;;17.88;72.54
64243;BME280;50573;51.512;5.386;2022-10-16T13:06:03;101380.03;;;17.96;70.81
64243;BME280;50573;51.512;5.386;2022-10-16T13:16:19;101391.41;;;17.95;68.58
64243;BME280;50573;51.512;5.386;2022-10-16T13:26:35;101396.00;;;17.85;70.52
64243;BME280;50573;51.512;5.386;2022-10-16T13:36:45;101413.72;;;17.75;70.19
64243;BME280;50573;51.512;5.386;2022-10-16T13:46:58;101422.53;;;17.71;70.09
64243;BME280;50573;51.512;5.386;2022-10-16T13:57:06;101423.34;;;17.73;73.74
64243;BME280;50573;51.512;5.386;2022-10-16T14:07:29;101425.59;;;17.87;73.88
64243;BME280;50573;51.512;5.386;2022-10-16T14:17:35;101438.09;;;17.76;73.60
64243;BME280;50573;51.512;5.386;2022-10-16T14:27:38;101413.69;;;17.41;74.66
64243;BME280;50573;51.512;5.386;2022-10-16T14:37:43;101401.84;;;17.27;74.62
64243;BME280;50573;51.512;5.386;2022-10-16T14:47:49;101411.75;;;17.49;76.01
64243;BME280;50573;51.512;5.386;2022-10-16T14:57:54;101414.22;;;17.55;76.48
64243;BME280;50573;51.512;5.386;2022-10-16T15:08:01;101401.16;;;17.55;76.35
64243;BME280;50573;51.512;5.386;2022-10-16T15:18:07;101403.03;;;17.48;76.45
64243;BME280;50573;51.512;5.386;2022-10-16T15:28:11;101397.63;;;17.21;78.72
64243;BME280;50573;51.512;5.386;2022-10-16T15:38:16;101400.09;;;16.90;79.98
64243;BME280;50573;51.512;5.386;2022-10-16T15:48:20;101404.09;;;16.66;82.35
64243;BME280;50573;51.512;5.386;2022-10-16T15:58:24;101392.44;;;16.43;83.49
64243;BME280;50573;51.512;5.386;2022-10-16T16:08:27;101404.13;;;16.22;85.11
64243;BME280;50573;51.512;5.386;2022-10-16T16:18:31;101387.22;;;16.00;86.57
64243;BME280;50573;51.512;5.386;2022-10-16T16:28:34;101398.09;;;15.73;88.71
64243;BME280;50573;51.512;5.386;2022-10-16T16:38:39;101395.75;;;15.59;89.91
64243;BME280;50573;51.512;5.386;2022-10-16T16:48:42;101408.91;;;15.52;90.70
64243;BME280;50573;51.512;5.386;2022-10-16T16:58:47;101409.94;;;15.41;92.46
64243;BME280;50573;51.512;5.386;2022-10-16T17:08:50;101422.19;;;15.35;93.40
64243;BME280;50573;51.512;5.386;2022-10-16T17:18:55;101417.97;;;15.27;94.42
64243;BME280;50573;51.512;5.386;2022-10-16T17:29:00;101415.63;;;15.12;94.99
64243;BME280;50573;51.512;5.386;2022-10-16T17:39:07;101415.84;;;14.95;97.54
64243;BME280;50573;51.512;5.386;2022-10-16T17:49:10;101423.88;;;14.81;97.78
64243;BME280;50573;51.512;5.386;2022-10-16T17:59:14;101436.91;;;14.80;98.74
64243;BME280;50573;51.512;5.386;2022-10-16T18:09:18;101473.38;;;14.77;99.02
64243;BME280;50573;51.512;5.386;2022-10-16T18:19:23;101542.78;;;14.78;100.00
64243;BME280;50573;51.512;5.386;2022-10-16T18:29:27;101530.88;;;14.52;100.00
64243;BME280;50573;51.512;5.386;2022-10-16T18:39:31;101544.22;;;14.18;100.00
64243;BME280;50573;51.512;5.386;2022-10-16T18:49:34;101529.63;;;14.03;100.00
64243;BME280;50573;51.512;5.386;2022-10-16T18:59:39;101489.88;;;13.93;100.00
64243;BME280;50573;51.512;5.386;2022-10-16T19:09:42;101511.63;;;13.83;100.00
64243;BME280;50573;51.512;5.386;2022-10-16T19:19:46;101526.41;;;13.75;100.00
64243;BME280;50573;51.512;5.386;2022-10-16T19:29:49;101526.47;;;13.67;100.00
64243;BME280;50573;51.512;5.386;2022-10-16T19:39:54;101533.41;;;13.63;100.00
64243;BME280;50573;51.512;5.386;2022-10-16T19:49:57;101542.97;;;13.61;100.00
64243;BME280;50573;51.512;5.386;2022-10-16T20:00:02;101531.72;;;13.61;100.00
64243;BME280;50573;51.512;5.386;2022-10-16T20:10:08;101526.56;;;13.58;100.00
64243;BME280;50573;51.512;5.386;2022-10-16T20:20:12;101508.41;;;13.50;100.00
64243;BME280;50573;51.512;5.386;2022-10-16T20:30:16;101517.13;;;13.40;100.00
64243;BME280;50573;51.512;5.386;2022-10-16T20:40:20;101529.31;;;13.28;100.00
64243;BME280;50573;51.512;5.386;2022-10-16T20:50:24;101520.69;;;13.17;100.00
64243;BME280;50573;51.512;5.386;2022-10-16T21:00:31;101513.84;;;13.04;100.00
64243;BME280;50573;51.512;5.386;2022-10-16T21:10:34;101491.41;;;12.92;100.00
64243;BME280;50573;51.512;5.386;2022-10-16T21:20:42;101497.53;;;12.81;100.00
64243;BME280;50573;51.512;5.386;2022-10-16T21:30:45;101499.31;;;12.64;100.00
64243;BME280;50573;51.512;5.386;2022-10-16T21:40:49;101499.38;;;12.50;100.00
64243;BME280;50573;51.512;5.386;2022-10-16T21:50:52;101492.47;;;12.41;100.00
64243;BME280;50573;51.512;5.386;2022-10-16T22:00:57;101485.56;;;12.36;100.00
64243;BME280;50573;51.512;5.386;2022-10-16T22:11:03;101489.91;;;12.38;100.00
64243;BME280;50573;51.512;5.386;2022-10-16T22:21:08;101489.91;;;12.37;100.00
64243;BME280;50573;51.512;5.386;2022-10-16T22:31:13;101503.72;;;12.37;100.00
64243;BME280;50573;51.512;5.386;2022-10-16T22:41:17;101515.78;;;12.49;100.00
64243;BME280;50573;51.512;5.386;2022-10-16T22:51:21;101501.09;;;12.56;100.00
64243;BME280;50573;51.512;5.386;2022-10-16T23:01:28;101476.88;;;12.52;100.00
64243;BME280;50573;51.512;5.386;2022-10-16T23:11:32;101470.84;;;12.55;100.00
64243;BME280;50573;51.512;5.386;2022-10-16T23:21:36;101472.56;;;12.54;100.00
64243;BME280;50573;51.512;5.386;2022-10-16T23:31:39;101573.66;;;12.67;100.00
64243;BME280;50573;51.512;5.386;2022-10-16T23:41:43;101571.94;;;12.72;100.00
64243;BME280;50573;51.512;5.386;2022-10-16T23:51:46;101555.50;;;12.67;100.00
